sensor_id;sensor_type;location;lat;lon;timestamp;temperature;humidity
46752;DHT22;32497;48.936;9.270;2023-03-01T00:02:23;-3275.80;75.70
46752;DHT22;32497;48.936;9.270;2023-03-01T00:07:24;-3275.70;75.90
46752;DHT22;32497;48.936;9.270;2023-03-01T00:12:26;-3275.60;76.40
46752;DHT22;32497;48.936;9.270;2023-03-01T00:17:27;-3275.50;77.00
46752;DHT22;32497;48.936;9.270;2023-03-01T00:22:28;-3275.40;77.40
46752;DHT22;32497;48.936;9.270;2023-03-01T00:27:31;-3275.40;77.30
46752;DHT22;32497;48.936;9.270;2023-03-01T00:32:32;-3275.40;77.40
46752;DHT22;32497;48.936;9.270;2023-03-01T00:37:33;-3275.30;77.60
46752;DHT22;32497;48.936;9.270;2023-03-01T00:42:36;-3275.30;77.90
46752;DHT22;32497;48.936;9.270;2023-03-01T00:47:37;-3275.30;78.00
46752;DHT22;32497;48.936;9.270;2023-03-01T00:52:38;-3275.30;77.60
46752;DHT22;32497;48.936;9.270;2023-03-01T00:57:40;-3275.20;77.70
46752;DHT22;32497;48.936;9.270;2023-03-01T01:02:41;-3275.10;78.40
46752;DHT22;32497;48.936;9.270;2023-03-01T01:07:42;-3275.10;78.80
46752;DHT22;32497;48.936;9.270;2023-03-01T01:12:46;-3275.00;78.90
46752;DHT22;32497;48.936;9.270;2023-03-01T01:17:47;-3275.10;78.80
46752;DHT22;32497;48.936;9.270;2023-03-01T01:22:48;-3275.20;78.60
46752;DHT22;32497;48.936;9.270;2023-03-01T01:27:50;-3275.30;78.20
46752;DHT22;32497;48.936;9.270;2023-03-01T01:32:51;-3275.50;77.70
46752;DHT22;32497;48.936;9.270;2023-03-01T01:37:53;-3275.50;77.30
46752;DHT22;32497;48.936;9.270;2023-03-01T01:42:55;-3275.50;77.10
46752;DHT22;32497;48.936;9.270;2023-03-01T01:48:00;-3275.50;77.40
46752;DHT22;32497;48.936;9.270;2023-03-01T01:53:07;-3275.60;77.40
46752;DHT22;32497;48.936;9.270;2023-03-01T01:58:13;-3275.80;76.70
46752;DHT22;32497;48.936;9.270;2023-03-01T02:03:20;-3276.00;76.20
46752;DHT22;32497;48.936;9.270;2023-03-01T02:08:27;-3276.10;75.80
46752;DHT22;32497;48.936;9.270;2023-03-01T02:13:33;-3276.10;76.00
46752;DHT22;32497;48.936;9.270;2023-03-01T02:18:34;-3276.30;75.10
46752;DHT22;32497;48.936;9.270;2023-03-01T02:23:36;-3276.40;74.50
46752;DHT22;32497;48.936;9.270;2023-03-01T02:28:40;-3276.50;74.40
46752;DHT22;32497;48.936;9.270;2023-03-01T02:33:44;-3276.60;74.10
46752;DHT22;32497;48.936;9.270;2023-03-01T02:38:47;-3276.50;73.90
46752;DHT22;32497;48.936;9.270;2023-03-01T02:43:50;-3276.60;74.00
46752;DHT22;32497;48.936;9.270;2023-03-01T02:48:52;-3276.70;73.70
46752;DHT22;32497;48.936;9.270;2023-03-01T02:54:03;-3276.70;73.70
46752;DHT22;32497;48.936;9.270;2023-03-01T02:59:09;-3276.70;73.40
46752;DHT22;32497;48.936;9.270;2023-03-01T03:09:18;-3276.60;73.40
46752;DHT22;32497;48.936;9.270;2023-03-01T03:14:21;-3276.70;73.00
46752;DHT22;32497;48.936;9.270;2023-03-01T03:19:23;-3276.70;72.90
46752;DHT22;32497;48.936;9.270;2023-03-01T03:24:24;-3276.50;73.20
46752;DHT22;32497;48.936;9.270;2023-03-01T03:29:26;-3276.60;73.40
46752;DHT22;32497;48.936;9.270;2023-03-01T03:34:28;-3276.50;73.60
46752;DHT22;32497;48.936;9.270;2023-03-01T03:39:29;-3276.60;73.60
46752;DHT22;32497;48.936;9.270;2023-03-01T03:44:31;-3276.70;73.70
46752;DHT22;32497;48.936;9.270;2023-03-01T03:49:33;-3276.60;74.00
46752;DHT22;32497;48.936;9.270;2023-03-01T03:54:34;-3276.60;73.80
46752;DHT22;32497;48.936;9.270;2023-03-01T03:59:37;-3276.60;73.50
46752;DHT22;32497;48.936;9.270;2023-03-01T04:04:38;-3276.60;73.70
46752;DHT22;32497;48.936;9.270;2023-03-01T04:09:39;-3276.60;73.60
46752;DHT22;32497;48.936;9.270;2023-03-01T04:14:41;-3276.60;73.50
46752;DHT22;32497;48.936;9.270;2023-03-01T04:19:43;-3276.60;73.70
46752;DHT22;32497;48.936;9.270;2023-03-01T04:24:44;-3276.60;73.50
46752;DHT22;32497;48.936;9.270;2023-03-01T04:29:46;-3276.60;73.50
46752;DHT22;32497;48.936;9.270;2023-03-01T04:34:47;-3276.60;73.50
46752;DHT22;32497;48.936;9.270;2023-03-01T04:39:48;-3276.60;73.30
46752;DHT22;32497;48.936;9.270;2023-03-01T04:44:51;-3276.50;73.50
46752;DHT22;32497;48.936;9.270;2023-03-01T04:49:52;-3276.50;73.70
46752;DHT22;32497;48.936;9.270;2023-03-01T04:54:53;-3276.60;73.50
46752;DHT22;32497;48.936;9.270;2023-03-01T04:59:55;-3276.60;73.50
46752;DHT22;32497;48.936;9.270;2023-03-01T05:04:56;-3276.60;73.90
46752;DHT22;32497;48.936;9.270;2023-03-01T05:09:57;-3276.60;74.00
46752;DHT22;32497;48.936;9.270;2023-03-01T05:15:00;-3276.50;73.90
46752;DHT22;32497;48.936;9.270;2023-03-01T05:20:04;-3276.50;74.30
46752;DHT22;32497;48.936;9.270;2023-03-01T05:25:06;-3276.40;74.30
46752;DHT22;32497;48.936;9.270;2023-03-01T05:30:13;-3276.40;74.20
46752;DHT22;32497;48.936;9.270;2023-03-01T05:35:16;-3276.20;74.80
46752;DHT22;32497;48.936;9.270;2023-03-01T05:40:19;-3276.00;75.80
46752;DHT22;32497;48.936;9.270;2023-03-01T05:45:24;-3276.00;76.20
46752;DHT22;32497;48.936;9.270;2023-03-01T05:50:26;-3276.00;76.40
46752;DHT22;32497;48.936;9.270;2023-03-01T05:55:29;-3276.10;76.40
46752;DHT22;32497;48.936;9.270;2023-03-01T06:00:32;-3276.30;76.20
46752;DHT22;32497;48.936;9.270;2023-03-01T06:05:34;-3276.30;75.70
46752;DHT22;32497;48.936;9.270;2023-03-01T06:10:35;-3276.30;75.30
46752;DHT22;32497;48.936;9.270;2023-03-01T06:15:37;-3276.30;74.90
46752;DHT22;32497;48.936;9.270;2023-03-01T06:20:38;-3276.30;75.00
46752;DHT22;32497;48.936;9.270;2023-03-01T06:25:39;-3276.30;74.80
46752;DHT22;32497;48.936;9.270;2023-03-01T06:30:42;-3276.40;74.80
46752;DHT22;32497;48.936;9.270;2023-03-01T06:35:43;-3276.30;74.80
46752;DHT22;32497;48.936;9.270;2023-03-01T06:40:45;-3276.10;74.80
46752;DHT22;32497;48.936;9.270;2023-03-01T06:45:53;-3275.90;75.40
46752;DHT22;32497;48.936;9.270;2023-03-01T06:50:58;-3275.80;75.80
46752;DHT22;32497;48.936;9.270;2023-03-01T06:55:59;-3275.80;76.10
46752;DHT22;32497;48.936;9.270;2023-03-01T07:01:05;-3275.80;75.90
46752;DHT22;32497;48.936;9.270;2023-03-01T07:06:06;-3275.80;75.90
46752;DHT22;32497;48.936;9.270;2023-03-01T07:11:07;-3275.90;76.10
46752;DHT22;32497;48.936;9.270;2023-03-01T07:16:10;-3276.00;75.40
46752;DHT22;32497;48.936;9.270;2023-03-01T07:21:13;-3276.00;75.30
46752;DHT22;32497;48.936;9.270;2023-03-01T07:26:14;-3276.20;74.60
46752;DHT22;32497;48.936;9.270;2023-03-01T07:31:17;-3276.30;74.40
46752;DHT22;32497;48.936;9.270;2023-03-01T07:36:18;-3276.40;73.80
46752;DHT22;32497;48.936;9.270;2023-03-01T07:41:19;-3276.50;73.30
46752;DHT22;32497;48.936;9.270;2023-03-01T07:46:21;-3276.60;73.10
46752;DHT22;32497;48.936;9.270;2023-03-01T07:51:23;-3276.70;72.50
46752;DHT22;32497;48.936;9.270;2023-03-01T07:56:24;-3276.70;72.30
46752;DHT22;32497;48.936;9.270;2023-03-01T08:01:26;0.00;71.60
46752;DHT22;32497;48.936;9.270;2023-03-01T08:06:27;0.00;71.50
46752;DHT22;32497;48.936;9.270;2023-03-01T08:11:29;0.00;71.60
46752;DHT22;32497;48.936;9.270;2023-03-01T08:16:31;0.10;71.10
46752;DHT22;32497;48.936;9.270;2023-03-01T08:21:32;0.10;71.20
46752;DHT22;32497;48.936;9.270;2023-03-01T08:26:34;0.30;70.80
46752;DHT22;32497;48.936;9.270;2023-03-01T08:31:39;0.40;70.30
46752;DHT22;32497;48.936;9.270;2023-03-01T08:36:42;0.60;69.90
46752;DHT22;32497;48.936;9.270;2023-03-01T08:41:43;0.60;69.60
46752;DHT22;32497;48.936;9.270;2023-03-01T08:46:46;0.90;69.30
46752;DHT22;32497;48.936;9.270;2023-03-01T08:51:48;1.10;68.50
46752;DHT22;32497;48.936;9.270;2023-03-01T08:56:49;1.10;67.90
46752;DHT22;32497;48.936;9.270;2023-03-01T09:01:51;1.20;67.80
46752;DHT22;32497;48.936;9.270;2023-03-01T09:06:52;1.30;67.70
46752;DHT22;32497;48.936;9.270;2023-03-01T09:11:53;1.60;67.40
46752;DHT22;32497;48.936;9.270;2023-03-01T09:16:56;1.60;67.20
46752;DHT22;32497;48.936;9.270;2023-03-01T09:21:58;1.70;66.60
46752;DHT22;32497;48.936;9.270;2023-03-01T09:26:59;1.80;65.90
46752;DHT22;32497;48.936;9.270;2023-03-01T09:32:01;2.00;65.50
46752;DHT22;32497;48.936;9.270;2023-03-01T09:37:02;2.10;65.30
46752;DHT22;32497;48.936;9.270;2023-03-01T09:42:03;2.40;64.00
46752;DHT22;32497;48.936;9.270;2023-03-01T09:47:10;2.60;63.90
46752;DHT22;32497;48.936;9.270;2023-03-01T09:52:21;2.80;63.20
46752;DHT22;32497;48.936;9.270;2023-03-01T09:57:32;3.00;62.20
46752;DHT22;32497;48.936;9.270;2023-03-01T10:02:44;3.10;62.00
46752;DHT22;32497;48.936;9.270;2023-03-01T10:07:52;3.30;60.50
46752;DHT22;32497;48.936;9.270;2023-03-01T10:12:55;3.60;60.30
46752;DHT22;32497;48.936;9.270;2023-03-01T10:18:01;3.70;60.20
46752;DHT22;32497;48.936;9.270;2023-03-01T10:23:04;4.10;59.40
46752;DHT22;32497;48.936;9.270;2023-03-01T10:28:12;4.20;57.80
46752;DHT22;32497;48.936;9.270;2023-03-01T10:33:19;4.40;58.20
46752;DHT22;32497;48.936;9.270;2023-03-01T10:38:21;4.40;56.10
46752;DHT22;32497;48.936;9.270;2023-03-01T10:43:23;4.60;57.20
46752;DHT22;32497;48.936;9.270;2023-03-01T10:48:27;4.70;56.20
46752;DHT22;32497;48.936;9.270;2023-03-01T10:53:31;4.80;55.60
46752;DHT22;32497;48.936;9.270;2023-03-01T10:58:33;5.10;54.80
46752;DHT22;32497;48.936;9.270;2023-03-01T11:03:38;5.10;55.30
46752;DHT22;32497;48.936;9.270;2023-03-01T11:08:41;5.30;55.40
46752;DHT22;32497;48.936;9.270;2023-03-01T11:13:50;5.20;55.10
46752;DHT22;32497;48.936;9.270;2023-03-01T11:18:59;5.60;53.80
46752;DHT22;32497;48.936;9.270;2023-03-01T11:24:01;5.60;53.20
46752;DHT22;32497;48.936;9.270;2023-03-01T11:29:07;5.70;53.20
46752;DHT22;32497;48.936;9.270;2023-03-01T11:34:17;5.90;53.10
46752;DHT22;32497;48.936;9.270;2023-03-01T11:39:27;6.20;52.70
46752;DHT22;32497;48.936;9.270;2023-03-01T11:44:30;6.10;51.90
46752;DHT22;32497;48.936;9.270;2023-03-01T11:49:53;6.40;53.10
46752;DHT22;32497;48.936;9.270;2023-03-01T11:55:12;6.40;50.30
46752;DHT22;32497;48.936;9.270;2023-03-01T12:00:30;6.70;52.00
46752;DHT22;32497;48.936;9.270;2023-03-01T12:05:54;6.80;50.20
46752;DHT22;32497;48.936;9.270;2023-03-01T12:11:08;7.00;50.20
46752;DHT22;32497;48.936;9.270;2023-03-01T12:16:30;7.00;49.30
46752;DHT22;32497;48.936;9.270;2023-03-01T12:21:45;7.20;49.10
46752;DHT22;32497;48.936;9.270;2023-03-01T12:27:00;7.70;49.30
46752;DHT22;32497;48.936;9.270;2023-03-01T12:32:28;7.70;48.70
46752;DHT22;32497;48.936;9.270;2023-03-01T12:37:46;7.90;47.90
46752;DHT22;32497;48.936;9.270;2023-03-01T12:42:55;7.90;47.50
46752;DHT22;32497;48.936;9.270;2023-03-01T12:48:12;9.30;45.10
46752;DHT22;32497;48.936;9.270;2023-03-01T12:53:26;10.90;40.40
46752;DHT22;32497;48.936;9.270;2023-03-01T12:58:31;11.20;40.10
46752;DHT22;32497;48.936;9.270;2023-03-01T13:03:42;11.10;40.00
46752;DHT22;32497;48.936;9.270;2023-03-01T13:08:56;11.70;40.10
46752;DHT22;32497;48.936;9.270;2023-03-01T13:19:33;11.40;39.10
46752;DHT22;32497;48.936;9.270;2023-03-01T13:24:38;12.30;37.30
46752;DHT22;32497;48.936;9.270;2023-03-01T13:29:45;12.50;38.30
46752;DHT22;32497;48.936;9.270;2023-03-01T13:34:57;12.20;37.60
46752;DHT22;32497;48.936;9.270;2023-03-01T13:40:03;12.20;37.30
46752;DHT22;32497;48.936;9.270;2023-03-01T13:45:19;12.70;37.20
46752;DHT22;32497;48.936;9.270;2023-03-01T13:50:23;13.20;35.70
46752;DHT22;32497;48.936;9.270;2023-03-01T13:55:32;13.00;36.00
46752;DHT22;32497;48.936;9.270;2023-03-01T14:00:37;12.00;38.50
46752;DHT22;32497;48.936;9.270;2023-03-01T14:05:39;12.20;37.70
46752;DHT22;32497;48.936;9.270;2023-03-01T14:10:47;13.00;36.40
46752;DHT22;32497;48.936;9.270;2023-03-01T14:16:03;12.70;36.80
46752;DHT22;32497;48.936;9.270;2023-03-01T14:21:08;12.70;37.70
46752;DHT22;32497;48.936;9.270;2023-03-01T14:26:10;12.30;38.30
46752;DHT22;32497;48.936;9.270;2023-03-01T14:31:34;12.70;36.90
46752;DHT22;32497;48.936;9.270;2023-03-01T14:36:35;12.10;38.00
46752;DHT22;32497;48.936;9.270;2023-03-01T14:41:38;11.60;38.90
46752;DHT22;32497;48.936;9.270;2023-03-01T14:46:40;11.20;41.00
46752;DHT22;32497;48.936;9.270;2023-03-01T14:51:46;11.50;39.60
46752;DHT22;32497;48.936;9.270;2023-03-01T14:56:53;10.90;40.20
46752;DHT22;32497;48.936;9.270;2023-03-01T15:01:56;11.10;40.20
46752;DHT22;32497;48.936;9.270;2023-03-01T15:06:57;11.30;41.20
46752;DHT22;32497;48.936;9.270;2023-03-01T15:12:00;11.60;39.50
46752;DHT22;32497;48.936;9.270;2023-03-01T15:17:01;11.00;40.90
46752;DHT22;32497;48.936;9.270;2023-03-01T15:22:02;10.80;40.90
46752;DHT22;32497;48.936;9.270;2023-03-01T15:27:05;10.20;41.70
46752;DHT22;32497;48.936;9.270;2023-03-01T15:32:25;9.60;42.90
46752;DHT22;32497;48.936;9.270;2023-03-01T15:37:44;9.40;44.10
46752;DHT22;32497;48.936;9.270;2023-03-01T15:42:47;9.00;44.30
46752;DHT22;32497;48.936;9.270;2023-03-01T15:47:50;8.40;46.20
46752;DHT22;32497;48.936;9.270;2023-03-01T15:52:52;8.10;47.40
46752;DHT22;32497;48.936;9.270;2023-03-01T15:58:00;7.60;48.30
46752;DHT22;32497;48.936;9.270;2023-03-01T16:03:02;7.30;49.10
46752;DHT22;32497;48.936;9.270;2023-03-01T16:08:03;7.00;50.00
46752;DHT22;32497;48.936;9.270;2023-03-01T16:13:07;6.80;50.50
46752;DHT22;32497;48.936;9.270;2023-03-01T16:18:08;6.60;50.80
46752;DHT22;32497;48.936;9.270;2023-03-01T16:23:11;6.60;51.00
46752;DHT22;32497;48.936;9.270;2023-03-01T16:28:13;6.40;51.60
46752;DHT22;32497;48.936;9.270;2023-03-01T16:33:14;6.30;52.20
46752;DHT22;32497;48.936;9.270;2023-03-01T16:38:15;6.20;52.10
46752;DHT22;32497;48.936;9.270;2023-03-01T16:43:18;6.10;52.50
46752;DHT22;32497;48.936;9.270;2023-03-01T16:48:19;6.00;52.80
46752;DHT22;32497;48.936;9.270;2023-03-01T16:53:20;5.80;53.30
46752;DHT22;32497;48.936;9.270;2023-03-01T16:58:23;5.60;53.80
46752;DHT22;32497;48.936;9.270;2023-03-01T17:03:25;5.40;54.40
46752;DHT22;32497;48.936;9.270;2023-03-01T17:08:26;5.20;55.30
46752;DHT22;32497;48.936;9.270;2023-03-01T17:13:29;5.10;55.90
46752;DHT22;32497;48.936;9.270;2023-03-01T17:18:30;4.80;57.00
46752;DHT22;32497;48.936;9.270;2023-03-01T17:23:32;4.60;57.80
46752;DHT22;32497;48.936;9.270;2023-03-01T17:28:35;4.30;58.80
46752;DHT22;32497;48.936;9.270;2023-03-01T17:33:37;4.10;59.60
46752;DHT22;32497;48.936;9.270;2023-03-01T17:38:38;4.10;59.80
46752;DHT22;32497;48.936;9.270;2023-03-01T17:43:40;4.00;60.50
46752;DHT22;32497;48.936;9.270;2023-03-01T17:48:42;3.70;61.30
46752;DHT22;32497;48.936;9.270;2023-03-01T17:53:43;3.60;61.80
46752;DHT22;32497;48.936;9.270;2023-03-01T17:58:45;3.50;62.20
46752;DHT22;32497;48.936;9.270;2023-03-01T18:03:49;3.40;62.60
46752;DHT22;32497;48.936;9.270;2023-03-01T18:08:50;3.30;63.10
46752;DHT22;32497;48.936;9.270;2023-03-01T18:13:55;3.10;63.70
46752;DHT22;32497;48.936;9.270;2023-03-01T18:18:56;2.90;64.80
46752;DHT22;32497;48.936;9.270;2023-03-01T18:24:00;3.10;64.50
46752;DHT22;32497;48.936;9.270;2023-03-01T18:29:03;3.00;64.30
46752;DHT22;32497;48.936;9.270;2023-03-01T18:34:04;2.90;64.60
46752;DHT22;32497;48.936;9.270;2023-03-01T18:39:06;2.90;65.20
46752;DHT22;32497;48.936;9.270;2023-03-01T18:44:09;2.90;64.80
46752;DHT22;32497;48.936;9.270;2023-03-01T18:49:11;2.90;64.80
46752;DHT22;32497;48.936;9.270;2023-03-01T18:54:12;2.70;65.20
46752;DHT22;32497;48.936;9.270;2023-03-01T18:59:15;2.60;65.80
46752;DHT22;32497;48.936;9.270;2023-03-01T19:04:16;2.60;65.70
46752;DHT22;32497;48.936;9.270;2023-03-01T19:09:17;2.70;65.40
46752;DHT22;32497;48.936;9.270;2023-03-01T19:14:19;2.80;64.90
46752;DHT22;32497;48.936;9.270;2023-03-01T19:19:21;2.90;64.70
46752;DHT22;32497;48.936;9.270;2023-03-01T19:24:22;2.90;64.70
46752;DHT22;32497;48.936;9.270;2023-03-01T19:29:24;2.90;64.90
46752;DHT22;32497;48.936;9.270;2023-03-01T19:34:25;2.80;65.20
46752;DHT22;32497;48.936;9.270;2023-03-01T19:39:27;2.70;65.70
46752;DHT22;32497;48.936;9.270;2023-03-01T19:44:29;2.60;65.90
46752;DHT22;32497;48.936;9.270;2023-03-01T19:49:31;2.70;65.80
46752;DHT22;32497;48.936;9.270;2023-03-01T19:54:32;2.70;66.00
46752;DHT22;32497;48.936;9.270;2023-03-01T19:59:34;2.70;66.20
46752;DHT22;32497;48.936;9.270;2023-03-01T20:04:35;2.60;66.50
46752;DHT22;32497;48.936;9.270;2023-03-01T20:09:36;2.60;66.90
46752;DHT22;32497;48.936;9.270;2023-03-01T20:14:39;2.60;67.10
46752;DHT22;32497;48.936;9.270;2023-03-01T20:19:40;2.60;67.40
46752;DHT22;32497;48.936;9.270;2023-03-01T20:24:41;2.70;67.30
46752;DHT22;32497;48.936;9.270;2023-03-01T20:29:44;2.80;67.30
46752;DHT22;32497;48.936;9.270;2023-03-01T20:34:45;2.70;67.70
46752;DHT22;32497;48.936;9.270;2023-03-01T20:39:46;2.60;68.50
46752;DHT22;32497;48.936;9.270;2023-03-01T20:44:48;2.60;69.10
46752;DHT22;32497;48.936;9.270;2023-03-01T20:49:50;2.40;69.90
46752;DHT22;32497;48.936;9.270;2023-03-01T20:54:51;2.40;70.20
46752;DHT22;32497;48.936;9.270;2023-03-01T20:59:53;2.40;70.00
46752;DHT22;32497;48.936;9.270;2023-03-01T21:04:54;2.30;70.40
46752;DHT22;32497;48.936;9.270;2023-03-01T21:09:55;2.20;71.00
46752;DHT22;32497;48.936;9.270;2023-03-01T21:14:58;2.10;71.50
46752;DHT22;32497;48.936;9.270;2023-03-01T21:19:59;2.00;72.10
46752;DHT22;32497;48.936;9.270;2023-03-01T21:25:00;2.00;72.10
46752;DHT22;32497;48.936;9.270;2023-03-01T21:30:04;2.00;71.70
46752;DHT22;32497;48.936;9.270;2023-03-01T21:35:05;2.10;71.70
46752;DHT22;32497;48.936;9.270;2023-03-01T21:40:08;2.10;71.60
46752;DHT22;32497;48.936;9.270;2023-03-01T21:45:10;2.10;71.70
46752;DHT22;32497;48.936;9.270;2023-03-01T21:50:12;2.10;71.60
46752;DHT22;32497;48.936;9.270;2023-03-01T21:55:13;2.10;71.70
46752;DHT22;32497;48.936;9.270;2023-03-01T22:00:16;2.10;72.00
46752;DHT22;32497;48.936;9.270;2023-03-01T22:05:17;1.90;72.50
46752;DHT22;32497;48.936;9.270;2023-03-01T22:10:18;1.80;73.20
46752;DHT22;32497;48.936;9.270;2023-03-01T22:15:22;1.70;73.80
46752;DHT22;32497;48.936;9.270;2023-03-01T22:20:23;1.60;74.30
46752;DHT22;32497;48.936;9.270;2023-03-01T22:25:24;1.60;74.10
46752;DHT22;32497;48.936;9.270;2023-03-01T22:30:27;1.60;74.10
46752;DHT22;32497;48.936;9.270;2023-03-01T22:35:28;1.70;73.90
46752;DHT22;32497;48.936;9.270;2023-03-01T22:40:29;1.70;73.70
46752;DHT22;32497;48.936;9.270;2023-03-01T22:45:32;1.70;73.90
46752;DHT22;32497;48.936;9.270;2023-03-01T22:50:33;1.70;73.60
46752;DHT22;32497;48.936;9.270;2023-03-01T22:55:34;1.60;74.00
46752;DHT22;32497;48.936;9.270;2023-03-01T23:00:36;1.50;74.20
46752;DHT22;32497;48.936;9.270;2023-03-01T23:05:37;1.60;74.30
46752;DHT22;32497;48.936;9.270;2023-03-01T23:10:39;1.60;74.40
46752;DHT22;32497;48.936;9.270;2023-03-01T23:15:42;1.50;74.20
46752;DHT22;32497;48.936;9.270;2023-03-01T23:20:43;1.60;74.10
46752;DHT22;32497;48.936;9.270;2023-03-01T23:25:52;1.40;74.60
46752;DHT22;32497;48.936;9.270;2023-03-01T23:30:56;1.20;75.00
46752;DHT22;32497;48.936;9.270;2023-03-01T23:35:58;1.20;75.30
46752;DHT22;32497;48.936;9.270;2023-03-01T23:41:00;1.20;75.20
46752;DHT22;32497;48.936;9.270;2023-03-01T23:46:02;1.20;75.20
46752;DHT22;32497;48.936;9.270;2023-03-01T23:51:04;1.10;75.40
46752;DHT22;32497;48.936;9.270;2023-03-01T23:56:06;1.10;75.40
